| time (UTC) | temp F | wind direction | speed knots | gust knots | rain 1hr in | rain 24hr in | rain mn in | humidity % | barometer mb |
| 20260508005006 | 49 | 0 | 0.0 | 1.7 | 0.00 | 0.00 | 0.00 | 89 | 1014.5 |
| 20260508004506 | 49 | 66 | 0.9 | 1.7 | 0.00 | 0.00 | 0.00 | 89 | 1014.6 |
| 20260508004006 | 49 | 66 | 0.9 | 1.7 | 0.00 | 0.00 | 0.00 | 89 | 1014.6 |
| 20260508003506 | 49 | 66 | 0.9 | 1.7 | 0.00 | 0.00 | 0.00 | 89 | 1014.6 |
| 20260508003006 | 49 | 0 | 0.0 | 1.7 | 0.00 | 0.00 | 0.00 | 89 | 1014.6 |
| 20260508002506 | 49 | 0 | 0.0 | 1.7 | 0.00 | 0.00 | 0.00 | 89 | 1014.7 |
| 20260508002005 | 49 | 0 | 0.0 | 0.9 | 0.00 | 0.00 | 0.00 | 88 | 1014.7 |
| 20260508001506 | 49 | 0 | 0.0 | 1.7 | 0.00 | 0.00 | 0.00 | 89 | 1014.6 |
| 20260508000506 | 49 | 0 | 0.0 | 1.7 | 0.00 | 0.00 | 0.00 | 88 | 1014.6 |
| 20260507235506 | 49 | 68 | 0.9 | 1.7 | 0.00 | 0.00 | 0.00 | 88 | 1014.6 |
| 20260507235005 | 49 | 0 | 0.0 | 1.7 | 0.00 | 0.00 | 0.00 | 88 | 1014.7 |
| 20260507234506 | 49 | 0 | 0.0 | 0.9 | 0.00 | 0.00 | 0.00 | 88 | 1014.7 |
| 20260507233506 | 49 | 0 | 0.0 | 0.9 | 0.00 | 0.00 | 0.00 | 87 | 1014.7 |
| 20260507232506 | 49 | 70 | 0.9 | 1.7 | 0.00 | 0.00 | 0.00 | 87 | 1014.7 |
| 20260507231506 | 50 | 0 | 0.0 | 0.9 | 0.00 | 0.00 | 0.00 | 87 | 1014.8 |
| 20260507231006 | 50 | 0 | 0.0 | 0.9 | 0.00 | 0.00 | 0.00 | 87 | 1014.8 |
| 20260507230505 | 50 | 0 | 0.0 | 0.9 | 0.00 | 0.00 | 0.00 | 87 | 1014.9 |
| 20260507225506 | 50 | 0 | 0.0 | 0.9 | 0.00 | 0.00 | 0.00 | 86 | 1014.9 |
| 20260507225006 | 50 | 0 | 0.0 | 0.9 | 0.00 | 0.00 | 0.00 | 86 | 1014.9 |
| 20260507224505 | 50 | 0 | 0.0 | 0.9 | 0.00 | 0.00 | 0.00 | 86 | 1014.9 |
| 20260507224006 | 50 | 0 | 0.0 | 1.7 | 0.00 | 0.00 | 0.00 | 86 | 1015.0 |
| 20260507223506 | 50 | 69 | 0.9 | 1.7 | 0.00 | 0.00 | 0.00 | 86 | 1015.1 |
| 20260507223006 | 51 | 80 | 0.9 | 2.6 | 0.00 | 0.00 | 0.00 | 86 | 1015.1 |
| 20260507222506 | 51 | 0 | 0.0 | 2.6 | 0.00 | 0.00 | 0.00 | 85 | 1015.0 |
| 20260507222006 | 51 | 0 | 0.0 | 1.7 | 0.00 | 0.00 | 0.00 | 85 | 1015.0 |
| 20260507221506 | 51 | 0 | 0.0 | 1.7 | 0.00 | 0.00 | 0.00 | 85 | 1015.0 |
| 20260507221006 | 51 | 0 | 0.0 | 1.7 | 0.00 | 0.00 | 0.00 | 85 | 1015.1 |
| 20260507220505 | 51 | 0 | 0.0 | 1.7 | 0.00 | 0.00 | 0.00 | 84 | 1015.1 |
| 20260507220006 | 51 | 195 | 0.9 | 2.6 | 0.00 | 0.00 | 0.00 | 84 | 1015.1 |
| 20260507215505 | 51 | 195 | 0.9 | 2.6 | 0.00 | 0.00 | 0.00 | 84 | 1015.2 |
| 20260507215006 | 51 | 179 | 0.9 | 2.6 | 0.00 | 0.00 | 0.00 | 84 | 1015.2 |
| 20260507214506 | 51 | 172 | 0.9 | 2.6 | 0.00 | 0.00 | 0.00 | 84 | 1015.2 |
| 20260507214006 | 51 | 154 | 0.9 | 5.2 | 0.00 | 0.00 | 0.00 | 84 | 1015.2 |
| 20260507213506 | 51 | 142 | 1.7 | 5.2 | 0.00 | 0.00 | 0.00 | 83 | 1015.1 |
| 20260507213006 | 51 | 127 | 1.7 | 5.2 | 0.00 | 0.00 | 0.00 | 83 | 1015.1 |
| 20260507212506 | 51 | 122 | 1.7 | 5.2 | 0.00 | 0.00 | 0.00 | 83 | 1015.1 |
| 20260507211006 | 51 | 136 | 0.9 | 6.1 | 0.00 | 0.00 | 0.00 | 82 | 1015.0 |
| 20260507210506 | 50 | 142 | 0.9 | 6.1 | 0.00 | 0.00 | 0.00 | 81 | 1014.9 |
| 20260507210006 | 50 | 0 | 0.0 | 1.7 | 0.00 | 0.00 | 0.00 | 80 | 1014.9 |
| 20260507205505 | 50 | 0 | 0.0 | 1.7 | 0.00 | 0.00 | 0.00 | 79 | 1014.9 |
| 20260507205006 | 51 | 158 | 0.9 | 1.7 | 0.00 | 0.00 | 0.00 | 78 | 1014.9 |
| 20260507204506 | 51 | 131 | 0.9 | 5.2 | 0.00 | 0.00 | 0.00 | 77 | 1014.9 |
| 20260507204006 | 51 | 127 | 0.9 | 5.2 | 0.00 | 0.00 | 0.00 | 76 | 1014.8 |
| 20260507203505 | 51 | 136 | 0.9 | 4.3 | 0.00 | 0.00 | 0.00 | 76 | 1014.7 |
| 20260507203006 | 51 | 133 | 0.9 | 4.3 | 0.00 | 0.00 | 0.00 | 75 | 1014.6 |
| 20260507202006 | 51 | 93 | 0.9 | 4.3 | 0.00 | 0.00 | 0.00 | 75 | 1014.5 |
| 20260507201506 | 51 | 83 | 0.9 | 4.3 | 0.00 | 0.00 | 0.00 | 76 | 1014.5 |
| 20260507201006 | 51 | 77 | 0.9 | 4.3 | 0.00 | 0.00 | 0.00 | 75 | 1014.5 |
| 20260507200506 | 51 | 72 | 0.9 | 2.6 | 0.00 | 0.00 | 0.00 | 75 | 1014.3 |
| 20260507195506 | 51 | 0 | 0.0 | 2.6 | 0.00 | 0.00 | 0.00 | 74 | 1014.4 |
| 20260507195006 | 52 | 0 | 0.0 | 0.9 | 0.00 | 0.00 | 0.00 | 72 | 1014.5 |
| 20260507194006 | 53 | 0 | 0.0 | 0.9 | 0.00 | 0.00 | 0.00 | 71 | 1014.4 |
| 20260507193506 | 53 | 0 | 0.0 | 0.9 | 0.00 | 0.00 | 0.00 | 70 | 1014.3 |
| 20260507193006 | 54 | 0 | 0.0 | 0.9 | 0.00 | 0.00 | 0.00 | 69 | 1014.3 |
| 20260507192506 | 54 | 0 | 0.0 | 0.9 | 0.00 | 0.00 | 0.00 | 69 | 1014.2 |
| 20260507192006 | 54 | 224 | 0.9 | 1.7 | 0.00 | 0.00 | 0.00 | 68 | 1014.2 |
| 20260507191506 | 55 | 206 | 0.9 | 1.7 | 0.00 | 0.00 | 0.00 | 67 | 1014.2 |
| 20260507191006 | 55 | 162 | 0.9 | 1.7 | 0.00 | 0.00 | 0.00 | 66 | 1014.2 |
| 20260507190505 | 56 | 182 | 1.7 | 5.2 | 0.00 | 0.00 | 0.00 | 65 | 1014.1 |
| 20260507190006 | 56 | 200 | 1.7 | 5.2 | 0.00 | 0.00 | 0.00 | 63 | 1014.1 |
| 20260507185506 | 56 | 200 | 1.7 | 5.2 | 0.00 | 0.00 | 0.00 | 61 | 1014.0 |
| 20260507184505 | 58 | 199 | 1.7 | 5.2 | 0.00 | 0.00 | 0.00 | 58 | 1014.0 |
| 20260507184005 | 58 | 196 | 1.7 | 6.1 | 0.00 | 0.00 | 0.00 | 56 | 1013.9 |
| 20260507183506 | 58 | 188 | 1.7 | 6.1 | 0.00 | 0.00 | 0.00 | 54 | 1013.9 |
| 20260507183006 | 59 | 194 | 1.7 | 5.2 | 0.00 | 0.00 | 0.00 | 51 | 1013.9 |
| 20260507182006 | 60 | 186 | 0.9 | 4.3 | 0.00 | 0.00 | 0.00 | 48 | 1013.8 |
| 20260507181506 | 60 | 197 | 0.9 | 4.3 | 0.00 | 0.00 | 0.00 | 47 | 1013.8 |
| 20260507181006 | 61 | 187 | 1.7 | 5.2 | 0.00 | 0.00 | 0.00 | 46 | 1013.8 |
| 20260507180506 | 61 | 187 | 1.7 | 5.2 | 0.00 | 0.00 | 0.00 | 46 | 1013.7 |
| 20260507175506 | 62 | 177 | 1.7 | 5.2 | 0.00 | 0.00 | 0.00 | 43 | 1013.8 |
| 20260507175006 | 63 | 182 | 1.7 | 5.2 | 0.00 | 0.00 | 0.00 | 43 | 1013.8 |
| 20260507174506 | 63 | 185 | 3.5 | 7.0 | 0.00 | 0.00 | 0.00 | 45 | 1013.8 |
| 20260507173506 | 64 | 189 | 3.5 | 6.1 | 0.00 | 0.00 | 0.00 | 42 | 1013.7 |
| 20260507173006 | 64 | 191 | 1.7 | 6.1 | 0.00 | 0.00 | 0.00 | 45 | 1013.7 |
| 20260507172506 | 64 | 196 | 1.7 | 7.0 | 0.00 | 0.00 | 0.00 | 45 | 1013.7 |
| 20260507172006 | 64 | 203 | 3.5 | 7.0 | 0.00 | 0.00 | 0.00 | 44 | 1013.7 |
| 20260507171506 | 64 | 218 | 3.5 | 7.0 | 0.00 | 0.00 | 0.00 | 45 | 1013.7 |
| 20260507171006 | 64 | 209 | 4.3 | 7.8 | 0.00 | 0.00 | 0.00 | 44 | 1013.7 |
| 20260507170506 | 64 | 208 | 4.3 | 9.6 | 0.00 | 0.00 | 0.00 | 43 | 1013.7 |
| 20260507165506 | 64 | 221 | 4.3 | 8.7 | 0.00 | 0.00 | 0.00 | 42 | 1013.8 |
| 20260507165006 | 64 | 200 | 4.3 | 8.7 | 0.00 | 0.00 | 0.00 | 43 | 1013.8 |
| 20260507164505 | 64 | 202 | 4.3 | 8.7 | 0.00 | 0.00 | 0.00 | 42 | 1013.8 |
| 20260507164006 | 64 | 216 | 4.3 | 9.6 | 0.00 | 0.00 | 0.00 | 42 | 1013.8 |
| 20260507163506 | 64 | 225 | 4.3 | 11.3 | 0.00 | 0.00 | 0.00 | 42 | 1013.8 |
| 20260507163006 | 64 | 209 | 4.3 | 11.3 | 0.00 | 0.00 | 0.00 | 42 | 1013.9 |
| 20260507162505 | 64 | 195 | 4.3 | 9.6 | 0.00 | 0.00 | 0.00 | 41 | 1013.9 |
| 20260507161506 | 64 | 222 | 5.2 | 9.6 | 0.00 | 0.00 | 0.00 | 42 | 1014.0 |
| 20260507161005 | 64 | 224 | 5.2 | 9.6 | 0.00 | 0.00 | 0.00 | 42 | 1014.0 |
| 20260507160506 | 65 | 222 | 4.3 | 8.7 | 0.00 | 0.00 | 0.00 | 42 | 1013.9 |
| 20260507160006 | 65 | 215 | 4.3 | 8.7 | 0.00 | 0.00 | 0.00 | 42 | 1014.0 |
| 20260507155006 | 65 | 185 | 4.3 | 9.6 | 0.00 | 0.00 | 0.00 | 42 | 1014.0 |
| 20260507154506 | 65 | 175 | 4.3 | 9.6 | 0.00 | 0.00 | 0.00 | 44 | 1013.9 |
| 20260507154008 | 64 | 189 | 5.2 | 11.3 | 0.00 | 0.00 | 0.00 | 42 | 1014.0 |
| 20260507153506 | 64 | 190 | 4.3 | 11.3 | 0.00 | 0.00 | 0.00 | 43 | 1014.0 |
| 20260507153006 | 64 | 182 | 4.3 | 9.6 | 0.00 | 0.00 | 0.00 | 44 | 1014.1 |
| 20260507152506 | 65 | 187 | 4.3 | 9.6 | 0.00 | 0.00 | 0.00 | 45 | 1014.1 |
| 20260507152006 | 64 | 213 | 4.3 | 7.8 | 0.00 | 0.00 | 0.00 | 44 | 1014.1 |
| 20260507151506 | 64 | 211 | 5.2 | 11.3 | 0.00 | 0.00 | 0.00 | 44 | 1014.2 |
| 20260507151006 | 64 | 211 | 5.2 | 11.3 | 0.00 | 0.00 | 0.00 | 44 | 1014.2 |
| 20260507150505 | 64 | 220 | 4.3 | 9.6 | 0.00 | 0.00 | 0.00 | 45 | 1014.2 |
| 20260507145506 | 63 | 200 | 4.3 | 11.3 | 0.00 | 0.00 | 0.00 | 47 | 1014.2 |
| 20260507145006 | 62 | 179 | 3.5 | 7.0 | 0.00 | 0.00 | 0.00 | 49 | 1014.2 |
| 20260507144506 | 62 | 103 | 1.7 | 6.1 | 0.00 | 0.00 | 0.00 | 63 | 1014.2 |
| 20260507144006 | 61 | 118 | 1.7 | 6.1 | 0.00 | 0.00 | 0.00 | 68 | 1014.2 |
| 20260507142006 | 60 | 85 | 1.7 | 7.0 | 0.00 | 0.00 | 0.00 | 71 | 1014.4 |
| 20260507141505 | 60 | 83 | 1.7 | 7.0 | 0.00 | 0.00 | 0.00 | 71 | 1014.5 |
| 20260507141007 | 60 | 90 | 1.7 | 6.1 | 0.00 | 0.00 | 0.00 | 71 | 1014.6 |
| 20260507140506 | 60 | 85 | 1.7 | 6.1 | 0.00 | 0.00 | 0.00 | 73 | 1014.6 |
| 20260507140006 | 58 | 81 | 1.7 | 6.1 | 0.00 | 0.00 | 0.00 | 78 | 1014.6 |
| 20260507135506 | 57 | 85 | 1.7 | 7.0 | 0.00 | 0.00 | 0.00 | 79 | 1014.6 |
| 20260507135006 | 56 | 89 | 3.5 | 7.8 | 0.00 | 0.00 | 0.00 | 80 | 1014.6 |
| 20260507134505 | 56 | 84 | 3.5 | 7.8 | 0.00 | 0.00 | 0.00 | 80 | 1014.7 |
| 20260507134006 | 55 | 79 | 1.7 | 6.1 | 0.00 | 0.00 | 0.00 | 81 | 1014.6 |
| 20260507133506 | 55 | 83 | 3.5 | 7.0 | 0.00 | 0.00 | 0.00 | 81 | 1014.6 |
| 20260507133006 | 55 | 74 | 3.5 | 7.0 | 0.00 | 0.00 | 0.00 | 80 | 1014.6 |
| 20260507132506 | 55 | 71 | 4.3 | 8.7 | 0.00 | 0.00 | 0.00 | 81 | 1014.6 |
| 20260507132006 | 55 | 79 | 5.2 | 9.6 | 0.00 | 0.00 | 0.00 | 81 | 1014.7 |
| 20260507131006 | 56 | 79 | 5.2 | 9.6 | 0.00 | 0.00 | 0.00 | 79 | 1014.8 |
| 20260507130006 | 56 | 83 | 4.3 | 8.7 | 0.00 | 0.00 | 0.00 | 76 | 1014.8 |
| 20260507125505 | 57 | 97 | 3.5 | 8.7 | 0.00 | 0.00 | 0.00 | 74 | 1014.7 |
| 20260507125006 | 58 | 105 | 1.7 | 8.7 | 0.00 | 0.00 | 0.00 | 71 | 1014.7 |
| 20260507124506 | 59 | 123 | 3.5 | 5.2 | 0.00 | 0.00 | 0.00 | 66 | 1014.7 |
| 20260507124006 | 59 | 134 | 3.5 | 7.0 | 0.00 | 0.00 | 0.00 | 61 | 1014.7 |
| 20260507123506 | 59 | 133 | 1.7 | 7.0 | 0.00 | 0.00 | 0.00 | 61 | 1014.7 |
| 20260507123006 | 59 | 144 | 0.9 | 6.1 | 0.00 | 0.00 | 0.00 | 63 | 1014.7 |
| 20260507122505 | 58 | 157 | 1.7 | 5.2 | 0.00 | 0.00 | 0.00 | 65 | 1014.7 |
| 20260507122006 | 58 | 158 | 3.5 | 6.1 | 0.00 | 0.00 | 0.00 | 64 | 1014.8 |
| 20260507121506 | 58 | 166 | 3.5 | 7.0 | 0.00 | 0.00 | 0.00 | 64 | 1014.7 |
| 20260507120006 | 59 | 171 | 4.3 | 8.7 | 0.00 | 0.00 | 0.00 | 62 | 1014.7 |
| 20260507115506 | 59 | 173 | 4.3 | 9.6 | 0.00 | 0.00 | 0.00 | 61 | 1014.7 |
| 20260507115005 | 60 | 167 | 3.5 | 9.6 | 0.00 | 0.00 | 0.00 | 57 | 1014.7 |
| 20260507114506 | 60 | 165 | 1.7 | 7.8 | 0.00 | 0.00 | 0.00 | 55 | 1014.7 |
| 20260507114006 | 60 | 173 | 1.7 | 6.1 | 0.00 | 0.00 | 0.00 | 54 | 1014.7 |
| 20260507113506 | 60 | 172 | 1.7 | 6.1 | 0.00 | 0.00 | 0.00 | 56 | 1014.7 |
| 20260507113006 | 60 | 175 | 1.7 | 6.1 | 0.00 | 0.00 | 0.00 | 52 | 1014.7 |
| 20260507112506 | 60 | 202 | 1.7 | 6.1 | 0.00 | 0.00 | 0.00 | 53 | 1014.7 |
| 20260507111506 | 61 | 192 | 3.5 | 7.0 | 0.00 | 0.00 | 0.00 | 53 | 1014.7 |
| 20260507111006 | 61 | 184 | 4.3 | 7.0 | 0.00 | 0.00 | 0.00 | 55 | 1014.7 |
| 20260507110006 | 62 | 161 | 3.5 | 8.7 | 0.00 | 0.00 | 0.00 | 53 | 1014.7 |
| 20260507105506 | 62 | 164 | 4.3 | 9.6 | 0.00 | 0.00 | 0.00 | 53 | 1014.8 |
| 20260507105006 | 63 | 173 | 4.3 | 9.6 | 0.00 | 0.00 | 0.00 | 54 | 1014.8 |
| 20260507104506 | 62 | 155 | 3.5 | 7.0 | 0.00 | 0.00 | 0.00 | 57 | 1014.7 |
| 20260507104005 | 61 | 163 | 1.7 | 5.2 | 0.00 | 0.00 | 0.00 | 59 | 1014.8 |
| 20260507103505 | 60 | 192 | 3.5 | 6.1 | 0.00 | 0.00 | 0.00 | 61 | 1014.8 |
| 20260507103006 | 60 | 208 | 3.5 | 6.1 | 0.00 | 0.00 | 0.00 | 60 | 1014.8 |
| 20260507102007 | 60 | 204 | 3.5 | 6.1 | 0.00 | 0.00 | 0.00 | 63 | 1014.9 |
| 20260507101507 | 60 | 211 | 1.7 | 6.1 | 0.00 | 0.00 | 0.00 | 63 | 1014.9 |
| 20260507101006 | 60 | 206 | 1.7 | 6.1 | 0.00 | 0.00 | 0.00 | 64 | 1014.9 |
| 20260507100506 | 60 | 194 | 1.7 | 6.1 | 0.00 | 0.00 | 0.00 | 61 | 1014.9 |
| 20260507100006 | 60 | 209 | 1.7 | 6.1 | 0.00 | 0.00 | 0.00 | 58 | 1014.9 |
| 20260507095506 | 60 | 225 | 1.7 | 5.2 | 0.00 | 0.00 | 0.00 | 60 | 1014.8 |
| 20260507095006 | 60 | 222 | 3.5 | 7.0 | 0.00 | 0.00 | 0.00 | 62 | 1014.9 |
| 20260507094506 | 60 | 203 | 3.5 | 7.0 | 0.00 | 0.00 | 0.00 | 60 | 1014.9 |
| 20260507094006 | 61 | 177 | 3.5 | 7.0 | 0.00 | 0.00 | 0.00 | 59 | 1014.9 |
| 20260507093006 | 60 | 171 | 3.5 | 6.1 | 0.00 | 0.00 | 0.00 | 59 | 1014.9 |
| 20260507092506 | 60 | 163 | 3.5 | 7.8 | 0.00 | 0.00 | 0.00 | 57 | 1014.9 |
| 20260507092006 | 60 | 144 | 3.5 | 7.8 | 0.00 | 0.00 | 0.00 | 60 | 1014.9 |
| 20260507091007 | 60 | 152 | 1.7 | 6.1 | 0.00 | 0.00 | 0.00 | 65 | 1014.9 |
| 20260507090506 | 60 | 140 | 1.7 | 7.0 | 0.00 | 0.00 | 0.00 | 64 | 1014.9 |
| 20260507090006 | 59 | 193 | 1.7 | 7.0 | 0.00 | 0.00 | 0.00 | 66 | 1014.9 |
| 20260507085505 | 59 | 223 | 1.7 | 6.1 | 0.00 | 0.00 | 0.00 | 69 | 1015.0 |
| 20260507085006 | 58 | 199 | 1.7 | 6.1 | 0.00 | 0.00 | 0.00 | 69 | 1015.0 |
| 20260507084506 | 58 | 191 | 3.5 | 7.0 | 0.00 | 0.00 | 0.00 | 69 | 1015.1 |
| 20260507084006 | 58 | 165 | 3.5 | 7.0 | 0.00 | 0.00 | 0.00 | 69 | 1015.1 |
| 20260507083505 | 58 | 141 | 3.5 | 6.1 | 0.00 | 0.00 | 0.00 | 72 | 1015.0 |
| 20260507083006 | 58 | 153 | 3.5 | 6.1 | 0.00 | 0.00 | 0.00 | 71 | 1015.0 |
| 20260507082505 | 58 | 179 | 1.7 | 5.2 | 0.00 | 0.00 | 0.00 | 72 | 1015.0 |
| 20260507082006 | 57 | 175 | 3.5 | 7.0 | 0.00 | 0.00 | 0.00 | 74 | 1015.0 |
| 20260507081505 | 56 | 164 | 1.7 | 7.0 | 0.00 | 0.00 | 0.00 | 73 | 1015.1 |
| 20260507081006 | 56 | 131 | 0.9 | 4.3 | 0.00 | 0.00 | 0.00 | 75 | 1015.0 |
| 20260507080505 | 55 | 105 | 0.9 | 2.6 | 0.00 | 0.00 | 0.00 | 77 | 1015.1 |
| 20260507075505 | 54 | 72 | 0.9 | 2.6 | 0.00 | 0.00 | 0.00 | 80 | 1015.1 |
| 20260507075006 | 53 | 88 | 0.9 | 2.6 | 0.00 | 0.00 | 0.00 | 81 | 1015.1 |
| 20260507074505 | 52 | 102 | 0.9 | 2.6 | 0.00 | 0.00 | 0.00 | 81 | 1015.1 |
| 20260507074005 | 51 | 0 | 0.0 | 1.7 | 0.00 | 0.00 | 0.00 | 82 | 1015.1 |
| 20260507073506 | 51 | 0 | 0.0 | 1.7 | 0.00 | 0.00 | 0.00 | 82 | 1015.1 |
| 20260507073006 | 51 | 67 | 0.9 | 2.6 | 0.00 | 0.00 | 0.00 | 83 | 1015.1 |
| 20260507072505 | 50 | 97 | 0.9 | 2.6 | 0.00 | 0.00 | 0.00 | 84 | 1015.1 |
| 20260507072006 | 50 | 0 | 0.0 | 2.6 | 0.00 | 0.00 | 0.00 | 85 | 1015.0 |
| 20260507071505 | 49 | 0 | 0.0 | 2.6 | 0.00 | 0.00 | 0.00 | 86 | 1015.0 |
| 20260507070506 | 48 | 0 | 0.0 | 1.7 | 0.00 | 0.00 | 0.00 | 87 | 1015.0 |
| 20260507070010 | 48 | 58 | 0.9 | 2.6 | 0.00 | 0.00 | 0.00 | 88 | 1015.0 |
| 20260507065506 | 47 | 32 | 0.9 | 4.3 | 0.00 | 0.00 | 0.00 | 88 | 1015.0 |
| 20260507064506 | 47 | 290 | 0.9 | 2.6 | 0.00 | 0.00 | 0.00 | 90 | 1014.9 |
| 20260507064006 | 47 | 283 | 0.9 | 2.6 | 0.00 | 0.00 | 0.00 | 90 | 1014.9 |
| 20260507063006 | 46 | 251 | 0.9 | 2.6 | 0.00 | 0.00 | 0.00 | 91 | 1014.9 |
| 20260507062506 | 46 | 255 | 0.9 | 4.3 | 0.00 | 0.00 | 0.00 | 91 | 1014.8 |
| 20260507062008 | 45 | 257 | 1.7 | 4.3 | 0.00 | 0.00 | 0.00 | 92 | 1014.9 |
| 20260507061006 | 45 | 339 | 1.7 | 6.1 | 0.00 | 0.00 | 0.00 | 93 | 1014.8 |
| 20260507060006 | 44 | 63 | 3.5 | 7.8 | 0.00 | 0.00 | 0.00 | 93 | 1014.4 |
| 20260507055506 | 44 | 60 | 1.7 | 7.0 | 0.00 | 0.00 | 0.00 | 93 | 1014.4 |
| 20260507054506 | 44 | 48 | 1.7 | 5.2 | 0.00 | 0.00 | 0.00 | 94 | 1014.5 |
| 20260507054006 | 43 | 42 | 0.9 | 5.2 | 0.00 | 0.00 | 0.00 | 94 | 1014.5 |
| 20260507053506 | 43 | 32 | 0.9 | 2.6 | 0.00 | 0.00 | 0.00 | 94 | 1014.4 |
| 20260507053006 | 43 | 33 | 0.9 | 2.6 | 0.00 | 0.00 | 0.00 | 94 | 1014.5 |
| 20260507052505 | 43 | 33 | 0.9 | 2.6 | 0.00 | 0.00 | 0.00 | 94 | 1014.5 |
| 20260507052006 | 43 | 31 | 0.9 | 1.7 | 0.00 | 0.00 | 0.00 | 94 | 1014.4 |
| 20260507051006 | 42 | 18 | 0.9 | 2.6 | 0.00 | 0.00 | 0.00 | 94 | 1014.4 |
| 20260507050506 | 42 | 0 | 0.0 | 1.7 | 0.00 | 0.00 | 0.00 | 94 | 1014.4 |
| 20260507045506 | 42 | 0 | 0.0 | 1.7 | 0.00 | 0.00 | 0.00 | 94 | 1014.4 |
| 20260507045006 | 42 | 0 | 0.0 | 1.7 | 0.00 | 0.00 | 0.00 | 94 | 1014.4 |
| 20260507044505 | 42 | 0 | 0.0 | 1.7 | 0.00 | 0.00 | 0.00 | 94 | 1014.4 |
| 20260507044005 | 41 | 0 | 0.0 | 1.7 | 0.00 | 0.00 | 0.00 | 94 | 1014.4 |
| 20260507043506 | 41 | 0 | 0.0 | 0.9 | 0.00 | 0.00 | 0.00 | 94 | 1014.4 |
| 20260507043006 | 41 | 0 | 0.0 | 0.9 | 0.00 | 0.00 | 0.00 | 94 | 1014.4 |
| 20260507042506 | 41 | 0 | 0.0 | 0.9 | 0.00 | 0.00 | 0.00 | 94 | 1014.4 |
| 20260507042006 | 41 | 0 | 0.0 | 1.7 | 0.00 | 0.00 | 0.00 | 94 | 1014.4 |
| 20260507041006 | 40 | 0 | 0.0 | 0.9 | 0.00 | 0.00 | 0.00 | 94 | 1014.4 |
| 20260507040506 | 40 | 0 | 0.0 | 0.9 | 0.00 | 0.00 | 0.00 | 94 | 1014.4 |
| 20260507040006 | 40 | 0 | 0.0 | 0.9 | 0.00 | 0.00 | 0.00 | 94 | 1014.4 |
| 20260507035506 | 40 | 0 | 0.0 | 0.9 | 0.00 | 0.00 | 0.00 | 94 | 1014.4 |
| 20260507035006 | 40 | 0 | 0.0 | 0.9 | 0.00 | 0.00 | 0.00 | 94 | 1014.4 |
| 20260507034506 | 39 | 0 | 0.0 | 0.9 | 0.00 | 0.00 | 0.00 | 94 | 1014.4 |
| 20260507034005 | 39 | 0 | 0.0 | 0.0 | 0.00 | 0.00 | 0.00 | 94 | 1014.4 |
| 20260507033506 | 39 | 0 | 0.0 | 0.0 | 0.00 | 0.00 | 0.00 | 94 | 1014.4 |
| 20260507033006 | 39 | 0 | 0.0 | 1.7 | 0.00 | 0.00 | 0.00 | 94 | 1014.3 |
| 20260507032506 | 39 | 0 | 0.0 | 1.7 | 0.00 | 0.00 | 0.00 | 94 | 1014.4 |
| 20260507032005 | 38 | 0 | 0.0 | 1.7 | 0.00 | 0.00 | 0.00 | 94 | 1014.4 |
| 20260507031505 | 38 | 0 | 0.0 | 1.7 | 0.00 | 0.00 | 0.00 | 93 | 1014.3 |
| 20260507030506 | 38 | 0 | 0.0 | 0.0 | 0.00 | 0.00 | 0.00 | 93 | 1014.3 |
| 20260507030006 | 38 | 0 | 0.0 | 0.0 | 0.00 | 0.00 | 0.00 | 93 | 1014.3 |
| 20260507025506 | 38 | 0 | 0.0 | 0.9 | 0.00 | 0.00 | 0.00 | 93 | 1014.3 |
| 20260507025006 | 38 | 0 | 0.0 | 0.9 | 0.00 | 0.00 | 0.00 | 92 | 1014.2 |
| 20260507024506 | 38 | 0 | 0.0 | 1.7 | 0.00 | 0.00 | 0.00 | 92 | 1014.2 |
| 20260507024006 | 38 | 0 | 0.0 | 1.7 | 0.00 | 0.00 | 0.00 | 92 | 1014.2 |
| 20260507023506 | 38 | 0 | 0.0 | 1.7 | 0.00 | 0.00 | 0.00 | 92 | 1014.2 |
| 20260507023006 | 38 | 0 | 0.0 | 0.9 | 0.00 | 0.00 | 0.00 | 92 | 1014.2 |
| 20260507022506 | 38 | 0 | 0.0 | 0.9 | 0.00 | 0.00 | 0.00 | 92 | 1014.2 |
| 20260507022006 | 38 | 0 | 0.0 | 0.9 | 0.00 | 0.00 | 0.00 | 92 | 1014.2 |
| 20260507021006 | 39 | 0 | 0.0 | 1.7 | 0.00 | 0.00 | 0.00 | 92 | 1014.2 |
| 20260507020506 | 39 | 53 | 0.9 | 1.7 | 0.00 | 0.00 | 0.00 | 92 | 1014.2 |
| 20260507020006 | 39 | 52 | 0.9 | 1.7 | 0.00 | 0.00 | 0.00 | 92 | 1014.2 |
| 20260507015506 | 39 | 0 | 0.0 | 1.7 | 0.00 | 0.00 | 0.00 | 91 | 1014.2 |
| 20260507015006 | 39 | 0 | 0.0 | 1.7 | 0.00 | 0.00 | 0.00 | 91 | 1014.2 |
| 20260507014506 | 39 | 0 | 0.0 | 1.7 | 0.00 | 0.00 | 0.00 | 91 | 1014.1 |
| 20260507014006 | 39 | 52 | 0.9 | 1.7 | 0.00 | 0.00 | 0.00 | 91 | 1014.1 |
| 20260507013505 | 39 | 0 | 0.0 | 1.7 | 0.00 | 0.00 | 0.00 | 91 | 1014.1 |
| 20260507013005 | 39 | 0 | 0.0 | 1.7 | 0.00 | 0.00 | 0.00 | 91 | 1014.1 |
| 20260507012508 | 39 | 0 | 0.0 | 1.7 | 0.00 | 0.00 | 0.00 | 91 | 1014.1 |
| 20260507012006 | 40 | 53 | 0.9 | 1.7 | 0.00 | 0.00 | 0.00 | 91 | 1014.1 |
| 20260507011506 | 40 | 54 | 0.9 | 1.7 | 0.00 | 0.00 | 0.00 | 91 | 1014.1 |
| 20260507010506 | 40 | 0 | 0.0 | 2.6 | 0.00 | 0.00 | 0.00 | 90 | 1014.1 |